sensor_id;sensor_type;location;lat;lon;timestamp;P1;durP1;ratioP1;P2;durP2;ratioP2
20794;SDS011;28087;-33.874;151.240;2023-08-12T00:00:36;9.73;;;5.15;;
20794;SDS011;28087;-33.874;151.240;2023-08-12T00:03:44;12.25;;;5.32;;
20794;SDS011;28087;-33.874;151.240;2023-08-12T00:06:50;11.02;;;5.82;;
20794;SDS011;28087;-33.874;151.240;2023-08-12T00:09:57;10.95;;;5.80;;
20794;SDS011;28087;-33.874;151.240;2023-08-12T00:13:11;11.13;;;5.80;;
20794;SDS011;28087;-33.874;151.240;2023-08-12T00:16:19;9.93;;;5.50;;
20794;SDS011;28087;-33.874;151.240;2023-08-12T00:19:26;10.07;;;5.18;;
20794;SDS011;28087;-33.874;151.240;2023-08-12T00:22:34;12.38;;;5.13;;
20794;SDS011;28087;-33.874;151.240;2023-08-12T00:25:37;9.85;;;4.30;;
20794;SDS011;28087;-33.874;151.240;2023-08-12T00:28:44;7.75;;;3.90;;
20794;SDS011;28087;-33.874;151.240;2023-08-12T00:31:53;9.88;;;4.20;;
20794;SDS011;28087;-33.874;151.240;2023-08-12T00:34:59;10.80;;;4.20;;
20794;SDS011;28087;-33.874;151.240;2023-08-12T00:38:08;9.27;;;4.53;;
20794;SDS011;28087;-33.874;151.240;2023-08-12T00:41:15;9.05;;;3.92;;
20794;SDS011;28087;-33.874;151.240;2023-08-12T00:44:24;7.65;;;3.40;;
20794;SDS011;28087;-33.874;151.240;2023-08-12T00:47:32;7.70;;;3.70;;
20794;SDS011;28087;-33.874;151.240;2023-08-12T00:50:37;9.60;;;3.78;;
20794;SDS011;28087;-33.874;151.240;2023-08-12T00:53:46;10.10;;;4.05;;
20794;SDS011;28087;-33.874;151.240;2023-08-12T00:56:58;12.23;;;4.38;;
20794;SDS011;28087;-33.874;151.240;2023-08-12T01:00:05;10.05;;;3.78;;
20794;SDS011;28087;-33.874;151.240;2023-08-12T01:03:14;10.27;;;4.20;;
20794;SDS011;28087;-33.874;151.240;2023-08-12T01:06:21;7.35;;;3.60;;
20794;SDS011;28087;-33.874;151.240;2023-08-12T01:09:35;8.85;;;3.78;;
20794;SDS011;28087;-33.874;151.240;2023-08-12T01:12:44;7.93;;;4.15;;
20794;SDS011;28087;-33.874;151.240;2023-08-12T01:15:56;12.23;;;3.90;;
20794;SDS011;28087;-33.874;151.240;2023-08-12T01:19:09;9.73;;;4.00;;
20794;SDS011;28087;-33.874;151.240;2023-08-12T01:22:18;7.57;;;3.75;;
20794;SDS011;28087;-33.874;151.240;2023-08-12T01:25:31;10.05;;;4.40;;
20794;SDS011;28087;-33.874;151.240;2023-08-12T01:28:40;10.63;;;4.18;;
20794;SDS011;28087;-33.874;151.240;2023-08-12T01:31:48;10.30;;;4.30;;
20794;SDS011;28087;-33.874;151.240;2023-08-12T01:35:00;8.98;;;4.18;;
20794;SDS011;28087;-33.874;151.240;2023-08-12T01:38:07;8.23;;;4.00;;
20794;SDS011;28087;-33.874;151.240;2023-08-12T01:41:17;12.77;;;4.15;;
20794;SDS011;28087;-33.874;151.240;2023-08-12T01:44:27;8.18;;;4.00;;
20794;SDS011;28087;-33.874;151.240;2023-08-12T01:47:42;8.70;;;4.15;;
20794;SDS011;28087;-33.874;151.240;2023-08-12T01:50:50;8.75;;;3.80;;
20794;SDS011;28087;-33.874;151.240;2023-08-12T01:53:56;10.23;;;3.65;;
20794;SDS011;28087;-33.874;151.240;2023-08-12T01:57:06;8.45;;;3.20;;
20794;SDS011;28087;-33.874;151.240;2023-08-12T02:00:13;7.95;;;3.45;;
20794;SDS011;28087;-33.874;151.240;2023-08-12T02:03:20;7.63;;;2.90;;
20794;SDS011;28087;-33.874;151.240;2023-08-12T02:06:27;9.88;;;3.70;;
20794;SDS011;28087;-33.874;151.240;2023-08-12T02:09:36;11.57;;;3.50;;
20794;SDS011;28087;-33.874;151.240;2023-08-12T02:12:45;8.85;;;3.53;;
20794;SDS011;28087;-33.874;151.240;2023-08-12T02:15:54;11.65;;;3.35;;
20794;SDS011;28087;-33.874;151.240;2023-08-12T02:19:02;10.07;;;3.28;;
20794;SDS011;28087;-33.874;151.240;2023-08-12T02:22:09;7.40;;;3.30;;
20794;SDS011;28087;-33.874;151.240;2023-08-12T02:25:16;7.75;;;2.90;;
20794;SDS011;28087;-33.874;151.240;2023-08-12T02:28:25;8.38;;;3.00;;
20794;SDS011;28087;-33.874;151.240;2023-08-12T02:31:31;6.43;;;2.83;;
20794;SDS011;28087;-33.874;151.240;2023-08-12T02:34:39;8.50;;;2.85;;
20794;SDS011;28087;-33.874;151.240;2023-08-12T02:37:51;5.93;;;2.90;;
20794;SDS011;28087;-33.874;151.240;2023-08-12T02:41:00;6.95;;;2.78;;
20794;SDS011;28087;-33.874;151.240;2023-08-12T02:44:13;5.68;;;2.65;;
20794;SDS011;28087;-33.874;151.240;2023-08-12T02:47:20;6.35;;;2.67;;
20794;SDS011;28087;-33.874;151.240;2023-08-12T02:50:26;6.43;;;2.70;;
20794;SDS011;28087;-33.874;151.240;2023-08-12T02:53:34;7.65;;;2.97;;
20794;SDS011;28087;-33.874;151.240;2023-08-12T02:56:43;5.82;;;2.38;;
20794;SDS011;28087;-33.874;151.240;2023-08-12T02:59:51;7.15;;;2.40;;
20794;SDS011;28087;-33.874;151.240;2023-08-12T03:03:02;7.93;;;2.90;;
20794;SDS011;28087;-33.874;151.240;2023-08-12T03:06:10;7.18;;;2.47;;
20794;SDS011;28087;-33.874;151.240;2023-08-12T03:09:19;6.28;;;2.70;;
20794;SDS011;28087;-33.874;151.240;2023-08-12T03:12:28;6.88;;;2.80;;
20794;SDS011;28087;-33.874;151.240;2023-08-12T03:15:40;10.50;;;3.08;;
20794;SDS011;28087;-33.874;151.240;2023-08-12T03:18:52;6.65;;;2.60;;
20794;SDS011;28087;-33.874;151.240;2023-08-12T03:22:00;6.65;;;2.42;;
20794;SDS011;28087;-33.874;151.240;2023-08-12T03:25:09;7.63;;;2.53;;
20794;SDS011;28087;-33.874;151.240;2023-08-12T03:28:17;10.85;;;3.00;;
20794;SDS011;28087;-33.874;151.240;2023-08-12T03:31:31;9.75;;;2.90;;
20794;SDS011;28087;-33.874;151.240;2023-08-12T03:34:42;7.75;;;2.90;;
20794;SDS011;28087;-33.874;151.240;2023-08-12T03:37:49;5.40;;;2.55;;
20794;SDS011;28087;-33.874;151.240;2023-08-12T03:41:00;5.65;;;2.25;;
20794;SDS011;28087;-33.874;151.240;2023-08-12T03:44:10;7.10;;;2.42;;
20794;SDS011;28087;-33.874;151.240;2023-08-12T03:47:19;6.85;;;2.60;;
20794;SDS011;28087;-33.874;151.240;2023-08-12T03:50:27;6.45;;;2.40;;
20794;SDS011;28087;-33.874;151.240;2023-08-12T03:53:34;6.13;;;2.60;;
20794;SDS011;28087;-33.874;151.240;2023-08-12T03:56:43;5.43;;;2.58;;
20794;SDS011;28087;-33.874;151.240;2023-08-12T03:59:52;8.65;;;2.40;;
20794;SDS011;28087;-33.874;151.240;2023-08-12T04:03:02;7.72;;;2.50;;
20794;SDS011;28087;-33.874;151.240;2023-08-12T04:06:10;5.93;;;2.45;;
20794;SDS011;28087;-33.874;151.240;2023-08-12T04:09:19;5.95;;;2.72;;
20794;SDS011;28087;-33.874;151.240;2023-08-12T04:12:31;5.90;;;2.60;;
20794;SDS011;28087;-33.874;151.240;2023-08-12T04:15:39;6.97;;;2.47;;
20794;SDS011;28087;-33.874;151.240;2023-08-12T04:18:53;6.72;;;2.53;;
20794;SDS011;28087;-33.874;151.240;2023-08-12T04:22:02;6.78;;;2.50;;
20794;SDS011;28087;-33.874;151.240;2023-08-12T04:25:13;7.05;;;2.50;;
20794;SDS011;28087;-33.874;151.240;2023-08-12T04:28:22;5.78;;;1.92;;
20794;SDS011;28087;-33.874;151.240;2023-08-12T04:31:28;4.90;;;2.05;;
20794;SDS011;28087;-33.874;151.240;2023-08-12T04:34:40;4.18;;;2.00;;
20794;SDS011;28087;-33.874;151.240;2023-08-12T04:37:46;4.20;;;1.80;;
20794;SDS011;28087;-33.874;151.240;2023-08-12T04:40:55;4.57;;;1.85;;
20794;SDS011;28087;-33.874;151.240;2023-08-12T04:44:01;4.30;;;2.00;;
20794;SDS011;28087;-33.874;151.240;2023-08-12T04:47:10;4.20;;;1.83;;
20794;SDS011;28087;-33.874;151.240;2023-08-12T04:50:20;4.43;;;1.88;;
20794;SDS011;28087;-33.874;151.240;2023-08-12T04:53:29;3.83;;;1.70;;
20794;SDS011;28087;-33.874;151.240;2023-08-12T04:56:37;5.22;;;1.48;;
20794;SDS011;28087;-33.874;151.240;2023-08-12T04:59:46;4.72;;;1.63;;
20794;SDS011;28087;-33.874;151.240;2023-08-12T05:02:53;4.57;;;1.73;;
20794;SDS011;28087;-33.874;151.240;2023-08-12T05:06:09;4.25;;;1.55;;
20794;SDS011;28087;-33.874;151.240;2023-08-12T05:09:16;3.83;;;1.60;;
20794;SDS011;28087;-33.874;151.240;2023-08-12T05:12:23;6.63;;;1.80;;
20794;SDS011;28087;-33.874;151.240;2023-08-12T05:15:31;5.78;;;1.70;;
20794;SDS011;28087;-33.874;151.240;2023-08-12T05:18:40;4.07;;;1.40;;
20794;SDS011;28087;-33.874;151.240;2023-08-12T05:21:51;5.85;;;1.55;;
20794;SDS011;28087;-33.874;151.240;2023-08-12T05:24:57;5.95;;;1.50;;
20794;SDS011;28087;-33.874;151.240;2023-08-12T05:28:03;3.78;;;1.65;;
20794;SDS011;28087;-33.874;151.240;2023-08-12T05:31:13;5.40;;;1.63;;
20794;SDS011;28087;-33.874;151.240;2023-08-12T05:34:24;6.03;;;1.60;;
20794;SDS011;28087;-33.874;151.240;2023-08-12T05:37:35;5.22;;;1.67;;
20794;SDS011;28087;-33.874;151.240;2023-08-12T05:40:46;5.45;;;2.03;;
20794;SDS011;28087;-33.874;151.240;2023-08-12T05:43:52;6.07;;;2.15;;
20794;SDS011;28087;-33.874;151.240;2023-08-12T05:46:59;5.10;;;2.00;;
20794;SDS011;28087;-33.874;151.240;2023-08-12T05:50:05;7.68;;;2.42;;
20794;SDS011;28087;-33.874;151.240;2023-08-12T05:53:14;7.47;;;2.40;;
20794;SDS011;28087;-33.874;151.240;2023-08-12T05:56:22;7.35;;;2.33;;
20794;SDS011;28087;-33.874;151.240;2023-08-12T05:59:29;7.93;;;2.70;;
20794;SDS011;28087;-33.874;151.240;2023-08-12T06:02:37;6.72;;;2.42;;
20794;SDS011;28087;-33.874;151.240;2023-08-12T06:05:46;7.93;;;2.78;;
20794;SDS011;28087;-33.874;151.240;2023-08-12T06:08:56;6.88;;;2.67;;
20794;SDS011;28087;-33.874;151.240;2023-08-12T06:12:02;7.57;;;2.50;;
20794;SDS011;28087;-33.874;151.240;2023-08-12T06:15:12;8.32;;;2.60;;
20794;SDS011;28087;-33.874;151.240;2023-08-12T06:18:15;6.03;;;2.50;;
20794;SDS011;28087;-33.874;151.240;2023-08-12T06:21:22;6.57;;;2.65;;
20794;SDS011;28087;-33.874;151.240;2023-08-12T06:24:33;6.03;;;2.53;;
20794;SDS011;28087;-33.874;151.240;2023-08-12T06:27:40;6.57;;;2.30;;
20794;SDS011;28087;-33.874;151.240;2023-08-12T06:30:47;6.18;;;2.60;;
20794;SDS011;28087;-33.874;151.240;2023-08-12T06:33:58;6.32;;;2.35;;
20794;SDS011;28087;-33.874;151.240;2023-08-12T06:37:08;7.35;;;2.53;;
20794;SDS011;28087;-33.874;151.240;2023-08-12T06:40:17;4.55;;;2.15;;
20794;SDS011;28087;-33.874;151.240;2023-08-12T06:43:23;7.35;;;2.25;;
20794;SDS011;28087;-33.874;151.240;2023-08-12T06:46:32;7.25;;;2.50;;
20794;SDS011;28087;-33.874;151.240;2023-08-12T06:49:41;6.30;;;2.47;;
20794;SDS011;28087;-33.874;151.240;2023-08-12T06:52:48;6.68;;;2.22;;
20794;SDS011;28087;-33.874;151.240;2023-08-12T06:56:01;6.55;;;2.38;;
20794;SDS011;28087;-33.874;151.240;2023-08-12T06:59:07;6.72;;;2.20;;
20794;SDS011;28087;-33.874;151.240;2023-08-12T07:02:13;7.97;;;2.25;;
20794;SDS011;28087;-33.874;151.240;2023-08-12T07:05:19;6.47;;;2.20;;
20794;SDS011;28087;-33.874;151.240;2023-08-12T07:08:26;7.55;;;2.20;;
20794;SDS011;28087;-33.874;151.240;2023-08-12T07:11:37;7.00;;;2.28;;
20794;SDS011;28087;-33.874;151.240;2023-08-12T07:14:44;6.55;;;2.30;;
20794;SDS011;28087;-33.874;151.240;2023-08-12T07:17:50;7.05;;;2.10;;
20794;SDS011;28087;-33.874;151.240;2023-08-12T07:20:58;7.28;;;2.33;;
20794;SDS011;28087;-33.874;151.240;2023-08-12T07:24:06;4.30;;;1.73;;
20794;SDS011;28087;-33.874;151.240;2023-08-12T07:27:16;4.95;;;1.77;;
20794;SDS011;28087;-33.874;151.240;2023-08-12T07:30:23;4.63;;;1.80;;
20794;SDS011;28087;-33.874;151.240;2023-08-12T07:33:31;6.18;;;1.90;;
20794;SDS011;28087;-33.874;151.240;2023-08-12T07:36:39;8.77;;;2.00;;
20794;SDS011;28087;-33.874;151.240;2023-08-12T07:39:47;7.75;;;2.03;;
20794;SDS011;28087;-33.874;151.240;2023-08-12T07:42:59;6.78;;;2.10;;
20794;SDS011;28087;-33.874;151.240;2023-08-12T07:46:07;8.15;;;2.15;;
20794;SDS011;28087;-33.874;151.240;2023-08-12T07:49:17;7.97;;;2.00;;
20794;SDS011;28087;-33.874;151.240;2023-08-12T07:52:25;6.57;;;2.20;;
20794;SDS011;28087;-33.874;151.240;2023-08-12T07:55:32;5.45;;;2.20;;
20794;SDS011;28087;-33.874;151.240;2023-08-12T07:58:44;5.28;;;2.13;;
20794;SDS011;28087;-33.874;151.240;2023-08-12T08:01:51;5.97;;;2.05;;
20794;SDS011;28087;-33.874;151.240;2023-08-12T08:05:01;5.10;;;2.08;;
20794;SDS011;28087;-33.874;151.240;2023-08-12T08:08:08;6.47;;;2.13;;
20794;SDS011;28087;-33.874;151.240;2023-08-12T08:11:16;7.03;;;2.15;;
20794;SDS011;28087;-33.874;151.240;2023-08-12T08:14:26;6.95;;;2.50;;
20794;SDS011;28087;-33.874;151.240;2023-08-12T08:17:32;5.97;;;2.55;;
20794;SDS011;28087;-33.874;151.240;2023-08-12T08:20:44;5.97;;;2.47;;
20794;SDS011;28087;-33.874;151.240;2023-08-12T08:23:53;7.70;;;2.80;;
20794;SDS011;28087;-33.874;151.240;2023-08-12T08:27:01;9.18;;;2.70;;
20794;SDS011;28087;-33.874;151.240;2023-08-12T08:30:13;8.15;;;2.65;;
20794;SDS011;28087;-33.874;151.240;2023-08-12T08:33:23;6.10;;;2.38;;
20794;SDS011;28087;-33.874;151.240;2023-08-12T08:36:34;8.57;;;2.90;;
20794;SDS011;28087;-33.874;151.240;2023-08-12T08:39:42;6.22;;;2.60;;
20794;SDS011;28087;-33.874;151.240;2023-08-12T08:42:53;5.35;;;2.58;;
20794;SDS011;28087;-33.874;151.240;2023-08-12T08:46:03;11.00;;;3.65;;
20794;SDS011;28087;-33.874;151.240;2023-08-12T08:49:10;8.07;;;3.83;;
20794;SDS011;28087;-33.874;151.240;2023-08-12T08:52:19;8.20;;;4.35;;
20794;SDS011;28087;-33.874;151.240;2023-08-12T08:55:27;15.07;;;13.00;;
20794;SDS011;28087;-33.874;151.240;2023-08-12T08:58:36;21.08;;;15.88;;
20794;SDS011;28087;-33.874;151.240;2023-08-12T09:01:45;16.95;;;11.48;;
20794;SDS011;28087;-33.874;151.240;2023-08-12T09:04:51;17.15;;;11.05;;
20794;SDS011;28087;-33.874;151.240;2023-08-12T09:07:58;12.43;;;7.43;;
20794;SDS011;28087;-33.874;151.240;2023-08-12T09:11:09;9.18;;;5.30;;
20794;SDS011;28087;-33.874;151.240;2023-08-12T09:14:18;6.32;;;3.17;;
20794;SDS011;28087;-33.874;151.240;2023-08-12T09:17:28;6.82;;;2.80;;
20794;SDS011;28087;-33.874;151.240;2023-08-12T09:20:33;7.15;;;3.35;;
20794;SDS011;28087;-33.874;151.240;2023-08-12T09:23:40;8.07;;;3.25;;
20794;SDS011;28087;-33.874;151.240;2023-08-12T09:26:51;8.40;;;3.20;;
20794;SDS011;28087;-33.874;151.240;2023-08-12T09:30:02;8.70;;;3.50;;
20794;SDS011;28087;-33.874;151.240;2023-08-12T09:33:11;7.90;;;3.22;;
20794;SDS011;28087;-33.874;151.240;2023-08-12T09:36:18;7.53;;;3.15;;
20794;SDS011;28087;-33.874;151.240;2023-08-12T09:39:25;7.35;;;3.15;;
20794;SDS011;28087;-33.874;151.240;2023-08-12T09:42:32;7.88;;;3.10;;
20794;SDS011;28087;-33.874;151.240;2023-08-12T09:45:39;6.85;;;3.35;;
20794;SDS011;28087;-33.874;151.240;2023-08-12T09:48:51;7.65;;;3.58;;
20794;SDS011;28087;-33.874;151.240;2023-08-12T09:51:59;9.60;;;3.65;;
20794;SDS011;28087;-33.874;151.240;2023-08-12T09:55:07;8.23;;;3.70;;
20794;SDS011;28087;-33.874;151.240;2023-08-12T09:58:14;13.10;;;3.47;;
20794;SDS011;28087;-33.874;151.240;2023-08-12T10:01:23;6.72;;;3.10;;
20794;SDS011;28087;-33.874;151.240;2023-08-12T10:04:37;8.85;;;3.25;;
20794;SDS011;28087;-33.874;151.240;2023-08-12T10:07:47;8.38;;;3.22;;
20794;SDS011;28087;-33.874;151.240;2023-08-12T10:10:55;7.60;;;3.03;;
20794;SDS011;28087;-33.874;151.240;2023-08-12T10:14:04;7.72;;;3.20;;
20794;SDS011;28087;-33.874;151.240;2023-08-12T10:17:11;7.97;;;3.40;;
20794;SDS011;28087;-33.874;151.240;2023-08-12T10:20:31;6.72;;;3.28;;
20794;SDS011;28087;-33.874;151.240;2023-08-12T10:23:42;9.90;;;4.13;;
20794;SDS011;28087;-33.874;151.240;2023-08-12T10:26:51;10.73;;;3.85;;
20794;SDS011;28087;-33.874;151.240;2023-08-12T10:29:57;9.90;;;3.60;;
20794;SDS011;28087;-33.874;151.240;2023-08-12T10:33:05;11.55;;;4.13;;
20794;SDS011;28087;-33.874;151.240;2023-08-12T10:36:16;12.98;;;7.63;;
20794;SDS011;28087;-33.874;151.240;2023-08-12T10:39:35;10.25;;;5.57;;
20794;SDS011;28087;-33.874;151.240;2023-08-12T10:42:43;11.85;;;4.40;;
20794;SDS011;28087;-33.874;151.240;2023-08-12T10:45:52;7.93;;;3.42;;
20794;SDS011;28087;-33.874;151.240;2023-08-12T10:49:02;9.57;;;3.35;;
20794;SDS011;28087;-33.874;151.240;2023-08-12T10:52:21;8.30;;;3.50;;
20794;SDS011;28087;-33.874;151.240;2023-08-12T10:55:34;10.05;;;3.50;;
20794;SDS011;28087;-33.874;151.240;2023-08-12T10:58:45;8.75;;;4.25;;
20794;SDS011;28087;-33.874;151.240;2023-08-12T11:01:59;11.02;;;4.40;;
20794;SDS011;28087;-33.874;151.240;2023-08-12T11:05:13;11.15;;;3.78;;
20794;SDS011;28087;-33.874;151.240;2023-08-12T11:08:26;7.45;;;4.10;;
20794;SDS011;28087;-33.874;151.240;2023-08-12T11:11:34;11.00;;;4.72;;
20794;SDS011;28087;-33.874;151.240;2023-08-12T11:14:48;8.27;;;4.13;;
20794;SDS011;28087;-33.874;151.240;2023-08-12T11:17:56;9.70;;;4.63;;
20794;SDS011;28087;-33.874;151.240;2023-08-12T11:21:03;8.20;;;4.20;;
20794;SDS011;28087;-33.874;151.240;2023-08-12T11:24:13;9.35;;;4.00;;
20794;SDS011;28087;-33.874;151.240;2023-08-12T11:27:22;7.25;;;3.50;;
20794;SDS011;28087;-33.874;151.240;2023-08-12T11:30:28;8.73;;;3.40;;
20794;SDS011;28087;-33.874;151.240;2023-08-12T11:33:35;7.97;;;3.65;;
20794;SDS011;28087;-33.874;151.240;2023-08-12T11:36:41;7.43;;;3.40;;
20794;SDS011;28087;-33.874;151.240;2023-08-12T11:39:55;7.75;;;2.95;;
20794;SDS011;28087;-33.874;151.240;2023-08-12T11:43:02;7.07;;;3.10;;
20794;SDS011;28087;-33.874;151.240;2023-08-12T11:46:09;6.97;;;2.88;;
20794;SDS011;28087;-33.874;151.240;2023-08-12T11:49:16;7.95;;;3.10;;
20794;SDS011;28087;-33.874;151.240;2023-08-12T11:52:27;8.52;;;3.60;;
20794;SDS011;28087;-33.874;151.240;2023-08-12T11:55:37;7.13;;;3.08;;
20794;SDS011;28087;-33.874;151.240;2023-08-12T11:58:48;7.63;;;3.40;;
20794;SDS011;28087;-33.874;151.240;2023-08-12T12:02:01;7.93;;;3.35;;
20794;SDS011;28087;-33.874;151.240;2023-08-12T12:05:08;7.28;;;3.25;;
20794;SDS011;28087;-33.874;151.240;2023-08-12T12:08:17;7.38;;;3.10;;
20794;SDS011;28087;-33.874;151.240;2023-08-12T12:11:27;7.90;;;2.63;;
20794;SDS011;28087;-33.874;151.240;2023-08-12T12:14:36;7.45;;;2.80;;
20794;SDS011;28087;-33.874;151.240;2023-08-12T12:17:42;7.40;;;2.47;;
20794;SDS011;28087;-33.874;151.240;2023-08-12T12:20:55;7.93;;;2.70;;
20794;SDS011;28087;-33.874;151.240;2023-08-12T12:24:04;8.25;;;2.67;;
20794;SDS011;28087;-33.874;151.240;2023-08-12T12:27:14;7.35;;;2.53;;
20794;SDS011;28087;-33.874;151.240;2023-08-12T12:30:21;6.35;;;2.70;;
20794;SDS011;28087;-33.874;151.240;2023-08-12T12:33:29;6.97;;;2.60;;
20794;SDS011;28087;-33.874;151.240;2023-08-12T12:36:37;5.88;;;2.40;;
20794;SDS011;28087;-33.874;151.240;2023-08-12T12:39:48;6.50;;;2.60;;
20794;SDS011;28087;-33.874;151.240;2023-08-12T12:42:57;6.30;;;2.67;;
20794;SDS011;28087;-33.874;151.240;2023-08-12T12:46:05;7.25;;;2.53;;
20794;SDS011;28087;-33.874;151.240;2023-08-12T12:49:16;6.78;;;2.50;;
20794;SDS011;28087;-33.874;151.240;2023-08-12T12:52:26;7.07;;;2.78;;
20794;SDS011;28087;-33.874;151.240;2023-08-12T12:55:33;7.18;;;3.03;;
20794;SDS011;28087;-33.874;151.240;2023-08-12T12:58:47;6.82;;;2.72;;
20794;SDS011;28087;-33.874;151.240;2023-08-12T13:01:56;8.18;;;2.70;;
20794;SDS011;28087;-33.874;151.240;2023-08-12T13:05:05;6.78;;;2.60;;
20794;SDS011;28087;-33.874;151.240;2023-08-12T13:08:12;6.38;;;2.60;;
20794;SDS011;28087;-33.874;151.240;2023-08-12T13:11:21;6.80;;;2.63;;
20794;SDS011;28087;-33.874;151.240;2023-08-12T13:14:34;7.63;;;2.90;;
20794;SDS011;28087;-33.874;151.240;2023-08-12T13:17:41;8.20;;;2.63;;
20794;SDS011;28087;-33.874;151.240;2023-08-12T13:20:50;8.88;;;3.00;;
20794;SDS011;28087;-33.874;151.240;2023-08-12T13:23:57;6.75;;;2.70;;
20794;SDS011;28087;-33.874;151.240;2023-08-12T13:27:04;8.32;;;2.97;;
20794;SDS011;28087;-33.874;151.240;2023-08-12T13:30:14;7.97;;;2.90;;
20794;SDS011;28087;-33.874;151.240;2023-08-12T13:33:23;7.32;;;2.63;;
20794;SDS011;28087;-33.874;151.240;2023-08-12T13:36:30;7.05;;;2.40;;
20794;SDS011;28087;-33.874;151.240;2023-08-12T13:39:39;5.90;;;2.28;;
20794;SDS011;28087;-33.874;151.240;2023-08-12T13:42:46;5.93;;;2.53;;
20794;SDS011;28087;-33.874;151.240;2023-08-12T13:45:56;6.57;;;2.60;;
20794;SDS011;28087;-33.874;151.240;2023-08-12T13:49:04;6.40;;;2.88;;
20794;SDS011;28087;-33.874;151.240;2023-08-12T13:52:14;8.20;;;2.50;;
20794;SDS011;28087;-33.874;151.240;2023-08-12T13:55:20;5.70;;;2.58;;
20794;SDS011;28087;-33.874;151.240;2023-08-12T13:58:26;7.82;;;2.55;;
20794;SDS011;28087;-33.874;151.240;2023-08-12T14:01:37;6.35;;;2.60;;
20794;SDS011;28087;-33.874;151.240;2023-08-12T14:04:46;8.00;;;2.47;;
20794;SDS011;28087;-33.874;151.240;2023-08-12T14:07:55;6.60;;;2.67;;
20794;SDS011;28087;-33.874;151.240;2023-08-12T14:11:02;5.85;;;2.47;;
20794;SDS011;28087;-33.874;151.240;2023-08-12T14:14:14;6.75;;;2.50;;
20794;SDS011;28087;-33.874;151.240;2023-08-12T14:17:28;6.90;;;2.60;;
20794;SDS011;28087;-33.874;151.240;2023-08-12T14:20:38;5.97;;;2.58;;
20794;SDS011;28087;-33.874;151.240;2023-08-12T14:23:47;7.00;;;2.50;;
20794;SDS011;28087;-33.874;151.240;2023-08-12T14:26:56;6.78;;;2.60;;
20794;SDS011;28087;-33.874;151.240;2023-08-12T14:30:14;7.38;;;2.55;;
20794;SDS011;28087;-33.874;151.240;2023-08-12T14:33:25;6.13;;;2.58;;
20794;SDS011;28087;-33.874;151.240;2023-08-12T14:36:36;8.25;;;2.60;;
20794;SDS011;28087;-33.874;151.240;2023-08-12T14:39:43;8.65;;;2.60;;
20794;SDS011;28087;-33.874;151.240;2023-08-12T14:42:49;5.82;;;2.20;;
20794;SDS011;28087;-33.874;151.240;2023-08-12T14:45:58;7.15;;;2.53;;
20794;SDS011;28087;-33.874;151.240;2023-08-12T14:49:08;6.53;;;2.60;;
20794;SDS011;28087;-33.874;151.240;2023-08-12T14:52:17;6.63;;;2.78;;
20794;SDS011;28087;-33.874;151.240;2023-08-12T14:55:26;6.60;;;2.47;;
20794;SDS011;28087;-33.874;151.240;2023-08-12T14:58:38;6.85;;;2.30;;
20794;SDS011;28087;-33.874;151.240;2023-08-12T15:01:46;5.85;;;2.40;;
20794;SDS011;28087;-33.874;151.240;2023-08-12T15:04:58;7.28;;;2.40;;
20794;SDS011;28087;-33.874;151.240;2023-08-12T15:08:06;6.53;;;2.40;;
20794;SDS011;28087;-33.874;151.240;2023-08-12T15:11:18;6.78;;;2.53;;
20794;SDS011;28087;-33.874;151.240;2023-08-12T15:14:28;6.95;;;2.55;;
20794;SDS011;28087;-33.874;151.240;2023-08-12T15:17:35;6.75;;;2.60;;
20794;SDS011;28087;-33.874;151.240;2023-08-12T15:20:51;7.50;;;2.38;;
20794;SDS011;28087;-33.874;151.240;2023-08-12T15:23:58;8.30;;;2.40;;
20794;SDS011;28087;-33.874;151.240;2023-08-12T15:27:06;7.13;;;2.50;;
20794;SDS011;28087;-33.874;151.240;2023-08-12T15:30:15;7.32;;;2.40;;
20794;SDS011;28087;-33.874;151.240;2023-08-12T15:33:22;7.47;;;2.90;;
20794;SDS011;28087;-33.874;151.240;2023-08-12T15:36:42;6.72;;;2.40;;
20794;SDS011;28087;-33.874;151.240;2023-08-12T15:39:52;5.40;;;2.35;;
20794;SDS011;28087;-33.874;151.240;2023-08-12T15:43:00;5.90;;;2.38;;
20794;SDS011;28087;-33.874;151.240;2023-08-12T15:46:10;6.85;;;2.65;;
20794;SDS011;28087;-33.874;151.240;2023-08-12T15:49:18;5.63;;;2.20;;
20794;SDS011;28087;-33.874;151.240;2023-08-12T15:52:28;5.45;;;2.50;;
20794;SDS011;28087;-33.874;151.240;2023-08-12T15:55:35;7.30;;;2.53;;
20794;SDS011;28087;-33.874;151.240;2023-08-12T15:58:46;7.88;;;2.40;;
20794;SDS011;28087;-33.874;151.240;2023-08-12T16:01:55;6.40;;;2.40;;
20794;SDS011;28087;-33.874;151.240;2023-08-12T16:05:04;6.03;;;2.60;;
20794;SDS011;28087;-33.874;151.240;2023-08-12T16:08:14;6.20;;;2.30;;
20794;SDS011;28087;-33.874;151.240;2023-08-12T16:11:23;6.40;;;2.25;;
20794;SDS011;28087;-33.874;151.240;2023-08-12T16:14:33;7.43;;;2.20;;
20794;SDS011;28087;-33.874;151.240;2023-08-12T16:17:41;5.45;;;2.17;;
20794;SDS011;28087;-33.874;151.240;2023-08-12T16:20:48;5.38;;;1.80;;
20794;SDS011;28087;-33.874;151.240;2023-08-12T16:23:57;7.05;;;2.10;;
20794;SDS011;28087;-33.874;151.240;2023-08-12T16:27:07;6.85;;;2.10;;
20794;SDS011;28087;-33.874;151.240;2023-08-12T16:30:20;6.07;;;2.25;;
20794;SDS011;28087;-33.874;151.240;2023-08-12T16:33:28;5.68;;;2.10;;
20794;SDS011;28087;-33.874;151.240;2023-08-12T16:36:34;6.68;;;2.20;;
20794;SDS011;28087;-33.874;151.240;2023-08-12T16:40:11;5.68;;;2.13;;
20794;SDS011;28087;-33.874;151.240;2023-08-12T16:43:19;6.93;;;2.40;;
20794;SDS011;28087;-33.874;151.240;2023-08-12T16:46:28;6.28;;;2.40;;
20794;SDS011;28087;-33.874;151.240;2023-08-12T16:49:34;5.22;;;2.30;;
20794;SDS011;28087;-33.874;151.240;2023-08-12T16:52:40;4.63;;;2.10;;
20794;SDS011;28087;-33.874;151.240;2023-08-12T16:55:51;5.72;;;2.03;;
20794;SDS011;28087;-33.874;151.240;2023-08-12T16:58:58;5.70;;;2.25;;
20794;SDS011;28087;-33.874;151.240;2023-08-12T17:02:07;6.60;;;2.30;;
20794;SDS011;28087;-33.874;151.240;2023-08-12T17:05:14;7.40;;;2.30;;
20794;SDS011;28087;-33.874;151.240;2023-08-12T17:08:23;5.18;;;2.00;;
20794;SDS011;28087;-33.874;151.240;2023-08-12T17:11:31;7.80;;;2.22;;
20794;SDS011;28087;-33.874;151.240;2023-08-12T17:14:38;7.05;;;2.28;;
20794;SDS011;28087;-33.874;151.240;2023-08-12T17:17:44;7.25;;;2.58;;
20794;SDS011;28087;-33.874;151.240;2023-08-12T17:20:52;7.75;;;2.50;;
20794;SDS011;28087;-33.874;151.240;2023-08-12T17:24:01;9.90;;;2.58;;
20794;SDS011;28087;-33.874;151.240;2023-08-12T17:27:13;7.07;;;2.67;;
20794;SDS011;28087;-33.874;151.240;2023-08-12T17:30:20;6.75;;;2.63;;
20794;SDS011;28087;-33.874;151.240;2023-08-12T17:33:28;6.47;;;2.70;;
20794;SDS011;28087;-33.874;151.240;2023-08-12T17:36:41;7.60;;;2.60;;
20794;SDS011;28087;-33.874;151.240;2023-08-12T17:39:48;8.02;;;2.67;;
20794;SDS011;28087;-33.874;151.240;2023-08-12T17:42:58;6.95;;;2.55;;
20794;SDS011;28087;-33.874;151.240;2023-08-12T17:46:06;9.27;;;2.55;;
20794;SDS011;28087;-33.874;151.240;2023-08-12T17:49:16;7.25;;;2.60;;
20794;SDS011;28087;-33.874;151.240;2023-08-12T17:52:24;7.03;;;2.50;;
20794;SDS011;28087;-33.874;151.240;2023-08-12T17:55:32;7.55;;;2.67;;
20794;SDS011;28087;-33.874;151.240;2023-08-12T17:58:43;8.18;;;2.55;;
20794;SDS011;28087;-33.874;151.240;2023-08-12T18:01:49;5.57;;;2.00;;
20794;SDS011;28087;-33.874;151.240;2023-08-12T18:04:56;5.30;;;2.00;;
20794;SDS011;28087;-33.874;151.240;2023-08-12T18:08:05;6.80;;;1.88;;